Time;durP1;ratioP1;P1;durP2;ratioP2;P2;SDS_P1;SDS_P2;PMS_P1;PMS_P2;Temp;Humidity;BMP_temperature;BMP_pressure;BME280_temperature;BME280_humidity;BME280_pressure;Samples;Min_cycle;Max_cycle;Signal;HPM_P1;HPM_P2
2021/01/10 00:00:55;;;;;;;24.10;16.17;;;4.60;99.90;;;;;;6156152;23;20928;-81
2021/01/10 00:03:21;;;;;;;22.53;16.00;;;4.60;99.90;;;;;;6151882;23;20419;-79
2021/01/10 00:05:47;;;;;;;21.17;15.57;;;4.60;99.90;;;;;;6151556;23;20387;-80
2021/01/10 00:08:14;;;;;;;23.77;15.97;;;4.70;99.90;;;;;;6151427;23;20433;-79
2021/01/10 00:10:43;;;;;;;24.17;17.20;;;4.70;99.90;;;;;;6153217;23;20461;-79
2021/01/10 00:13:10;;;;;;;28.10;17.43;;;4.70;99.90;;;;;;6154400;23;20434;-80
2021/01/10 00:15:36;;;;;;;25.40;17.30;;;4.80;99.90;;;;;;6157283;23;20399;-81
2021/01/10 00:18:05;;;;;;;25.83;16.40;;;4.80;99.90;;;;;;6165309;23;20434;-79
2021/01/10 00:20:33;;;;;;;26.03;15.67;;;4.70;99.90;;;;;;6168802;23;20421;-80
2021/01/10 00:22:59;;;;;;;27.73;17.50;;;4.60;99.90;;;;;;6163675;23;20513;-79
2021/01/10 00:25:26;;;;;;;25.90;17.57;;;4.60;99.90;;;;;;6163946;23;20410;-79
2021/01/10 00:27:52;;;;;;;25.83;16.17;;;4.60;99.90;;;;;;6164074;23;20407;-79
2021/01/10 00:30:20;;;;;;;24.63;16.50;;;4.70;99.90;;;;;;6162347;23;20406;-79
2021/01/10 00:32:55;;;;;;;26.03;16.70;;;4.70;99.90;;;;;;6160531;23;20458;-80
2021/01/10 00:35:23;;;;;;;25.77;17.53;;;4.70;99.90;;;;;;6160464;23;20406;-78
2021/01/10 00:37:56;;;;;;;24.33;16.97;;;4.60;99.90;;;;;;6164891;23;20454;-78
2021/01/10 00:40:24;;;;;;;22.20;15.13;;;4.60;99.90;;;;;;6160596;23;20470;-79
2021/01/10 00:42:51;;;;;;;26.33;16.10;;;4.60;99.90;;;;;;6157234;23;20430;-80
2021/01/10 00:45:18;;;;;;;21.57;16.10;;;4.70;99.90;;;;;;6154229;23;20434;-81
2021/01/10 00:47:45;;;;;;;16.93;13.13;;;4.60;99.90;;;;;;6149978;23;20712;-82
2021/01/10 00:50:12;;;;;;;19.07;12.80;;;4.60;99.90;;;;;;6150056;23;20497;-79
2021/01/10 00:52:38;;;;;;;17.70;13.23;;;4.60;99.90;;;;;;6152586;23;20426;-81
2021/01/10 00:55:06;;;;;;;18.63;13.77;;;4.70;99.90;;;;;;6149289;23;20442;-80
2021/01/10 00:57:33;;;;;;;23.37;15.23;;;4.70;99.90;;;;;;6152793;23;20486;-82
2021/01/10 00:59:59;;;;;;;20.63;14.80;;;4.70;99.90;;;;;;6153662;23;20447;-79
2021/01/10 01:02:26;;;;;;;24.20;16.80;;;4.70;99.90;;;;;;6156393;23;20415;-79
2021/01/10 01:04:52;;;;;;;23.60;15.53;;;4.70;99.90;;;;;;6160531;23;20759;-78
2021/01/10 01:07:19;;;;;;;20.57;14.90;;;4.70;99.90;;;;;;6158824;23;20437;-80
2021/01/10 01:09:45;;;;;;;25.33;16.47;;;4.90;99.90;;;;;;6160195;23;20395;-81
2021/01/10 01:12:23;;;;;;;19.77;16.07;;;5.00;99.90;;;;;;6161041;23;20462;-81
2021/01/10 01:14:52;;;;;;;28.77;18.87;;;5.00;99.90;;;;;;6160318;23;20495;-81
2021/01/10 01:17:19;;;;;;;22.20;15.53;;;4.90;99.90;;;;;;6164928;23;20465;-79
2021/01/10 01:19:45;;;;;;;25.03;16.27;;;4.80;99.90;;;;;;6164846;23;20398;-80
2021/01/10 01:22:11;;;;;;;24.57;17.37;;;4.80;99.90;;;;;;6162693;23;20399;-77
2021/01/10 01:24:38;;;;;;;22.80;16.60;;;4.80;99.90;;;;;;6160864;23;20423;-79
2021/01/10 01:27:04;;;;;;;22.30;16.33;;;4.80;99.90;;;;;;6159192;23;20439;-80
2021/01/10 01:29:30;;;;;;;28.20;17.00;;;4.70;99.90;;;;;;6162063;23;20445;-80
2021/01/10 01:31:56;;;;;;;24.57;16.47;;;4.70;99.90;;;;;;6158918;23;20411;-79
2021/01/10 01:34:23;;;;;;;25.20;16.20;;;4.70;99.90;;;;;;6169866;23;20482;-79
2021/01/10 01:36:49;;;;;;;26.57;17.37;;;4.80;99.90;;;;;;6171088;23;20422;-78
2021/01/10 01:39:15;;;;;;;27.23;15.87;;;4.90;99.90;;;;;;6169824;23;20434;-79
2021/01/10 01:41:41;;;;;;;27.47;18.70;;;4.90;99.90;;;;;;6158220;23;20467;-80
2021/01/10 01:44:07;;;;;;;26.77;17.70;;;4.80;99.90;;;;;;6157678;23;20542;-81
2021/01/10 01:46:36;;;;;;;24.50;16.90;;;4.80;99.90;;;;;;6170254;23;20418;-79
2021/01/10 01:49:06;;;;;;;24.03;15.83;;;4.80;99.90;;;;;;6172832;23;20432;-78
2021/01/10 01:51:34;;;;;;;27.63;16.97;;;4.70;99.90;;;;;;6173692;23;20422;-78
2021/01/10 01:54:01;;;;;;;25.00;15.80;;;4.70;99.90;;;;;;6171588;23;20442;-79
2021/01/10 01:56:27;;;;;;;26.30;17.47;;;4.60;99.90;;;;;;6157002;23;20738;-80
2021/01/10 01:59:01;;;;;;;30.07;17.23;;;4.60;99.90;;;;;;6155352;23;20446;-79
2021/01/10 02:01:29;;;;;;;31.13;17.73;;;4.60;99.90;;;;;;6155691;23;20986;-81
2021/01/10 02:04:25;;;;;;;30.80;18.67;;;4.60;99.90;;;;;;6163080;23;20434;-79
2021/01/10 02:07:03;;;;;;;34.13;18.23;;;4.70;99.90;;;;;;6149515;23;20449;-83
2021/01/10 02:09:31;;;;;;;27.77;17.10;;;4.60;99.90;;;;;;6165992;23;20417;-78
2021/01/10 02:12:03;;;;;;;31.47;19.50;;;4.60;99.90;;;;;;6166390;23;20411;-79
2021/01/10 02:14:46;;;;;;;29.00;19.47;;;4.60;99.90;;;;;;6165217;23;20455;-81
2021/01/10 02:17:14;;;;;;;30.60;19.23;;;4.80;99.90;;;;;;6162024;23;20454;-80
2021/01/10 02:19:50;;;;;;;36.30;20.57;;;5.30;99.90;;;;;;6153807;23;20423;-82
2021/01/10 02:22:20;;;;;;;34.80;19.37;;;5.30;99.90;;;;;;6153347;23;20707;-82
2021/01/10 02:24:48;;;;;;;26.77;18.03;;;5.00;99.90;;;;;;6150917;23;20450;-81
2021/01/10 02:27:15;;;;;;;26.60;16.80;;;4.80;99.90;;;;;;6152514;23;20510;-80
2021/01/10 02:29:43;;;;;;;27.47;18.13;;;4.70;99.90;;;;;;6149805;23;20415;-81
2021/01/10 02:32:10;;;;;;;27.33;16.07;;;4.70;99.90;;;;;;6149206;23;20415;-81
2021/01/10 02:34:38;;;;;;;30.30;17.87;;;4.60;99.90;;;;;;6147596;23;20438;-81
2021/01/10 02:37:15;;;;;;;25.67;19.03;;;4.60;99.90;;;;;;6153313;23;20454;-80
2021/01/10 02:40:03;;;;;;;26.57;16.60;;;4.60;99.90;;;;;;6165753;23;20374;-80
2021/01/10 02:42:37;;;;;;;26.93;17.70;;;4.60;99.90;;;;;;6149611;23;20439;-79
2021/01/10 02:45:12;;;;;;;30.37;18.50;;;4.60;99.90;;;;;;6150980;23;21010;-79
2021/01/10 02:47:38;;;;;;;29.70;18.87;;;4.80;99.90;;;;;;6150283;23;21061;-80
2021/01/10 02:50:06;;;;;;;24.50;16.30;;;4.80;99.90;;;;;;6149661;23;20721;-80
2021/01/10 02:52:33;;;;;;;27.60;16.93;;;4.70;99.90;;;;;;6148969;23;20415;-80
2021/01/10 02:54:59;;;;;;;26.63;17.10;;;4.60;99.90;;;;;;6149895;23;20418;-79
2021/01/10 02:57:37;;;;;;;29.33;17.53;;;4.60;99.90;;;;;;6150070;23;20446;-80
2021/01/10 03:00:06;;;;;;;32.17;18.43;;;4.60;99.90;;;;;;6152860;23;20411;-80
2021/01/10 03:02:34;;;;;;;31.93;16.90;;;4.70;99.90;;;;;;6151932;23;20665;-78
2021/01/10 03:05:02;;;;;;;25.97;16.47;;;4.70;99.90;;;;;;6152417;23;20490;-79
2021/01/10 03:07:29;;;;;;;25.63;15.93;;;4.60;99.90;;;;;;6152506;23;20587;-80
2021/01/10 03:09:57;;;;;;;26.50;16.27;;;4.70;99.90;;;;;;6151974;23;20539;-77
2021/01/10 03:12:25;;;;;;;27.43;17.67;;;4.60;99.90;;;;;;6155101;23;20415;-78
2021/01/10 03:14:59;;;;;;;26.73;18.07;;;4.60;99.90;;;;;;6153523;23;20468;-80
2021/01/10 03:17:47;;;;;;;29.87;17.87;;;4.60;99.90;;;;;;6147981;23;20472;-81
2021/01/10 03:20:23;;;;;;;24.37;16.93;;;4.50;99.90;;;;;;6149203;23;20410;-80
2021/01/10 03:22:50;;;;;;;34.97;17.90;;;4.90;99.90;;;;;;6149385;23;20431;-79
2021/01/10 03:25:19;;;;;;;31.00;18.63;;;5.30;99.90;;;;;;6147572;23;20458;-80
2021/01/10 03:27:46;;;;;;;28.03;17.97;;;5.40;99.90;;;;;;6149036;23;20403;-81
2021/01/10 03:30:15;;;;;;;29.67;18.90;;;5.10;99.90;;;;;;6148954;23;20426;-80
2021/01/10 03:32:43;;;;;;;31.50;17.97;;;4.80;99.90;;;;;;6147865;23;20419;-82
2021/01/10 03:35:12;;;;;;;27.00;17.10;;;4.70;99.90;;;;;;6147445;23;20461;-81
2021/01/10 03:37:39;;;;;;;30.20;18.90;;;4.70;99.90;;;;;;6146935;23;20451;-80
2021/01/10 03:40:07;;;;;;;33.40;18.97;;;4.70;99.90;;;;;;6146179;23;20414;-81
2021/01/10 03:42:33;;;;;;;28.43;17.43;;;4.80;99.90;;;;;;6148085;23;20910;-81
2021/01/10 03:44:59;;;;;;;30.60;18.00;;;4.60;99.90;;;;;;6148336;23;20411;-80
2021/01/10 03:47:25;;;;;;;28.73;18.20;;;4.70;99.90;;;;;;6148225;23;20461;-79
2021/01/10 03:49:52;;;;;;;33.13;17.70;;;4.70;99.90;;;;;;6148743;23;20402;-83
2021/01/10 03:52:18;;;;;;;29.50;19.20;;;4.70;99.90;;;;;;6147916;23;20418;-82
2021/01/10 03:54:44;;;;;;;30.17;17.73;;;4.70;99.90;;;;;;6149310;23;20518;-81
2021/01/10 03:57:10;;;;;;;30.20;19.83;;;4.60;99.90;;;;;;6149222;23;20447;-81
2021/01/10 03:59:36;;;;;;;28.90;19.60;;;4.60;99.90;;;;;;6148561;23;20462;-82
2021/01/10 04:02:02;;;;;;;29.30;18.40;;;4.60;99.90;;;;;;6146428;23;20417;-81
2021/01/10 04:04:29;;;;;;;29.33;18.70;;;4.50;99.90;;;;;;6145834;23;20430;-81
2021/01/10 04:06:55;;;;;;;31.03;19.10;;;4.50;99.90;;;;;;6146666;23;20414;-79
2021/01/10 04:09:21;;;;;;;30.70;20.17;;;4.50;99.90;;;;;;6149925;23;20411;-81
2021/01/10 04:11:47;;;;;;;33.60;19.93;;;4.50;99.90;;;;;;6149197;23;20414;-80
2021/01/10 04:14:14;;;;;;;29.50;18.57;;;4.60;99.90;;;;;;6147866;23;20517;-80
2021/01/10 04:16:40;;;;;;;31.47;19.43;;;4.60;99.90;;;;;;6148273;23;20414;-79
2021/01/10 04:19:06;;;;;;;28.40;18.17;;;4.60;99.90;;;;;;6145653;23;20525;-80
2021/01/10 04:21:36;;;;;;;33.83;19.50;;;4.80;99.90;;;;;;6149670;23;20476;-80
2021/01/10 04:24:04;;;;;;;36.93;21.00;;;5.30;99.90;;;;;;6149154;23;20522;-81
2021/01/10 04:26:36;;;;;;;35.27;20.83;;;5.40;99.90;;;;;;6121806;23;20494;-78
2021/01/10 04:29:03;;;;;;;35.30;20.23;;;5.20;99.90;;;;;;6147954;23;20396;-80
2021/01/10 04:31:29;;;;;;;32.70;20.20;;;5.30;99.90;;;;;;6150136;23;20407;-81
2021/01/10 04:33:56;;;;;;;33.43;19.83;;;5.30;99.90;;;;;;6148288;23;20489;-79
2021/01/10 04:36:27;;;;;;;31.67;20.00;;;5.00;99.90;;;;;;6149700;23;20511;-79
2021/01/10 04:38:55;;;;;;;36.83;19.73;;;4.90;99.90;;;;;;6173313;23;20465;-82
2021/01/10 04:41:25;;;;;;;31.70;19.63;;;4.70;99.90;;;;;;6149325;23;20740;-79
2021/01/10 04:43:53;;;;;;;31.97;18.10;;;4.60;99.90;;;;;;6149210;23;20437;-83
2021/01/10 04:46:21;;;;;;;33.23;19.30;;;4.50;99.90;;;;;;6149857;23;20717;-79
2021/01/10 04:48:49;;;;;;;33.27;19.87;;;4.50;99.90;;;;;;6147775;23;20426;-83
2021/01/10 04:51:16;;;;;;;28.63;19.03;;;4.40;99.90;;;;;;6149264;23;20827;-81
2021/01/10 04:53:46;;;;;;;28.33;17.83;;;4.40;99.90;;;;;;6150053;23;20438;-79
2021/01/10 04:56:13;;;;;;;30.23;18.43;;;4.40;99.90;;;;;;6152355;23;20395;-80
2021/01/10 04:58:42;;;;;;;29.43;17.73;;;4.50;99.90;;;;;;6167838;23;20529;-79
2021/01/10 05:01:18;;;;;;;36.70;18.40;;;4.50;99.90;;;;;;6158357;23;20417;-81
2021/01/10 05:03:45;;;;;;;31.67;18.57;;;4.50;99.90;;;;;;6153430;23;20441;-80
2021/01/10 05:06:11;;;;;;;31.73;18.97;;;5.00;99.90;;;;;;6153628;23;20479;-82
2021/01/10 05:08:39;;;;;;;28.93;18.60;;;4.90;99.90;;;;;;6151517;23;20419;-83
2021/01/10 05:11:05;;;;;;;29.20;18.17;;;4.80;99.90;;;;;;6149155;23;20487;-81
2021/01/10 05:13:31;;;;;;;30.57;17.53;;;4.70;99.90;;;;;;6149242;23;20451;-81
2021/01/10 05:15:58;;;;;;;31.00;19.10;;;4.70;99.90;;;;;;6150929;23;20403;-80
2021/01/10 05:18:24;;;;;;;28.87;17.90;;;4.70;99.90;;;;;;6148737;23;20434;-79
2021/01/10 05:20:54;;;;;;;30.97;18.67;;;4.60;99.90;;;;;;6150614;23;20433;-81
2021/01/10 05:23:24;;;;;;;26.80;18.13;;;4.60;99.90;;;;;;6151595;23;20502;-81
2021/01/10 05:26:05;;;;;;;30.33;19.00;;;4.60;99.90;;;;;;6148649;23;20889;-81
2021/01/10 05:28:33;;;;;;;30.80;17.00;;;4.60;99.90;;;;;;6149822;23;20395;-81
2021/01/10 05:31:00;;;;;;;28.17;17.90;;;4.60;99.90;;;;;;6151975;23;20406;-80
2021/01/10 05:33:27;;;;;;;28.63;16.90;;;4.60;99.90;;;;;;6151296;23;20485;-79
2021/01/10 05:35:56;;;;;;;33.93;18.33;;;4.70;99.90;;;;;;6173741;23;20415;-80
2021/01/10 05:38:41;;;;;;;33.57;18.90;;;4.90;99.90;;;;;;6151871;23;20628;-82
2021/01/10 05:41:10;;;;;;;28.87;18.67;;;4.80;99.90;;;;;;6150755;23;20502;-80
2021/01/10 05:43:36;;;;;;;27.80;16.90;;;4.70;99.90;;;;;;6151621;23;20735;-81
2021/01/10 05:46:18;;;;;;;30.33;18.30;;;4.70;99.90;;;;;;6149805;23;20487;-82
2021/01/10 05:48:45;;;;;;;26.50;16.30;;;4.70;99.90;;;;;;6150447;23;20433;-80
2021/01/10 05:51:12;;;;;;;32.20;18.03;;;4.70;99.90;;;;;;6148966;23;20407;-80
2021/01/10 05:53:42;;;;;;;29.67;17.70;;;4.70;99.90;;;;;;6148415;23;20446;-81
2021/01/10 05:56:08;;;;;;;31.17;19.03;;;5.20;99.90;;;;;;6151500;23;20694;-80
2021/01/10 05:58:34;;;;;;;33.10;17.97;;;5.30;99.90;;;;;;6155740;23;20470;-81
2021/01/10 06:01:11;;;;;;;31.83;19.43;;;5.10;99.90;;;;;;6155900;23;20494;-81
2021/01/10 06:03:38;;;;;;;34.10;19.20;;;5.10;99.90;;;;;;6154371;23;20552;-82
2021/01/10 06:06:06;;;;;;;25.50;17.00;;;5.10;99.90;;;;;;6153178;23;20801;-80
2021/01/10 06:08:37;;;;;;;33.20;18.40;;;5.30;99.90;;;;;;6157763;23;20415;-80
2021/01/10 06:11:21;;;;;;;35.10;18.90;;;5.50;99.90;;;;;;6151892;23;20977;-80
2021/01/10 06:13:58;;;;;;;32.30;18.97;;;5.40;99.90;;;;;;6151788;23;20534;-80
2021/01/10 06:16:26;;;;;;;36.30;18.90;;;5.20;99.90;;;;;;6158372;23;20430;-81
2021/01/10 06:18:56;;;;;;;30.63;18.67;;;5.40;99.90;;;;;;6156209;23;20443;-78
2021/01/10 06:21:25;;;;;;;34.03;20.17;;;5.10;99.90;;;;;;6155925;23;20445;-81
2021/01/10 06:23:53;;;;;;;29.13;17.67;;;4.80;99.90;;;;;;6155165;23;20518;-79
2021/01/10 06:26:21;;;;;;;30.40;17.50;;;4.60;99.90;;;;;;6153473;23;20407;-81
2021/01/10 06:28:55;;;;;;;36.63;18.50;;;4.60;99.90;;;;;;6153410;23;20423;-78
2021/01/10 06:31:24;;;;;;;31.47;17.07;;;4.50;99.90;;;;;;6155369;23;20399;-81
2021/01/10 06:34:10;;;;;;;27.47;17.93;;;4.50;99.90;;;;;;6152473;23;20454;-79
2021/01/10 06:36:46;;;;;;;30.17;17.77;;;4.40;99.90;;;;;;6154698;23;20392;-79
2021/01/10 06:39:24;;;;;;;31.80;18.40;;;4.80;99.90;;;;;;6155008;23;20433;-81
2021/01/10 06:42:13;;;;;;;28.07;16.90;;;5.00;99.90;;;;;;6157217;23;20463;-81
2021/01/10 06:44:42;;;;;;;31.77;18.17;;;5.30;99.90;;;;;;6156607;23;20929;-80
2021/01/10 06:47:19;;;;;;;28.53;18.60;;;5.50;99.90;;;;;;6154852;23;20422;-79
2021/01/10 06:49:45;;;;;;;31.90;19.53;;;5.40;99.90;;;;;;6156423;23;20478;-78
2021/01/10 06:52:12;;;;;;;29.53;16.73;;;5.30;99.90;;;;;;6154051;23;20415;-80
2021/01/10 06:54:44;;;;;;;29.67;17.27;;;5.30;99.90;;;;;;6152027;23;20467;-82
2021/01/10 06:57:11;;;;;;;33.53;18.23;;;5.30;99.90;;;;;;6152373;23;20413;-81
2021/01/10 07:00:00;;;;;;;29.77;17.47;;;5.10;99.90;;;;;;6154732;23;20402;-82
2021/01/10 07:02:29;;;;;;;32.63;17.70;;;5.10;99.90;;;;;;6156330;23;20498;-78
2021/01/10 07:04:57;;;;;;;34.20;21.13;;;5.00;99.90;;;;;;6156042;23;20403;-79
2021/01/10 07:07:31;;;;;;;36.17;20.27;;;5.10;99.90;;;;;;6155824;23;20796;-80
2021/01/10 07:09:57;;;;;;;29.53;16.80;;;5.10;99.90;;;;;;6154744;23;20407;-80
2021/01/10 07:12:24;;;;;;;34.50;18.70;;;5.00;99.90;;;;;;6157069;23;20434;-80
2021/01/10 07:14:50;;;;;;;31.50;18.43;;;4.90;99.90;;;;;;6161825;23;20482;-80
2021/01/10 07:17:18;;;;;;;36.87;19.90;;;4.80;99.90;;;;;;6171819;23;20430;-78
2021/01/10 07:19:47;;;;;;;31.20;18.10;;;4.90;99.90;;;;;;6167633;23;20414;-79
2021/01/10 07:22:28;;;;;;;40.23;19.43;;;5.10;99.90;;;;;;6165555;23;20411;-79
2021/01/10 07:24:55;;;;;;;34.67;20.70;;;5.20;99.90;;;;;;6163667;23;20700;-80
2021/01/10 07:27:30;;;;;;;44.70;23.40;;;5.20;99.90;;;;;;6157254;23;20442;-81
2021/01/10 07:29:56;;;;;;;30.63;18.50;;;5.20;99.90;;;;;;6157785;23;20457;-80
2021/01/10 07:32:42;;;;;;;34.40;21.20;;;5.00;99.90;;;;;;6155990;23;20422;-79
2021/01/10 07:35:09;;;;;;;35.00;20.10;;;4.90;99.90;;;;;;6179725;23;20409;-78
2021/01/10 07:37:36;;;;;;;35.40;20.77;;;4.80;99.90;;;;;;6158082;23;20450;-78
2021/01/10 07:40:06;;;;;;;34.40;20.33;;;4.80;99.90;;;;;;6163313;23;20449;-80
2021/01/10 07:42:34;;;;;;;39.10;19.93;;;4.80;99.90;;;;;;6173296;23;20466;-78
2021/01/10 07:45:23;;;;;;;35.27;20.33;;;4.60;99.90;;;;;;6173646;23;20441;-80
2021/01/10 07:47:51;;;;;;;39.37;20.70;;;5.00;99.90;;;;;;6167392;23;20445;-81
2021/01/10 07:50:17;;;;;;;44.73;20.43;;;5.20;99.90;;;;;;6158876;23;20441;-81
2021/01/10 07:52:46;;;;;;;39.40;22.43;;;5.10;99.90;;;;;;6168497;23;20414;-80
2021/01/10 07:55:18;;;;;;;45.00;22.33;;;5.10;99.90;;;;;;6174290;23;20419;-78
2021/01/10 07:57:51;;;;;;;39.43;22.60;;;5.10;99.90;;;;;;6173313;23;20537;-78
2021/01/10 08:00:32;;;;;;;46.77;24.47;;;5.10;99.90;;;;;;6174477;23;20430;-78
2021/01/10 08:03:00;;;;;;;44.97;22.43;;;5.10;99.90;;;;;;6161343;23;20430;-80
2021/01/10 08:05:41;;;;;;;45.50;23.77;;;5.00;99.90;;;;;;6153608;23;20417;-81
2021/01/10 08:08:13;;;;;;;38.10;20.30;;;4.90;99.90;;;;;;6154401;23;20874;-80
2021/01/10 08:10:54;;;;;;;42.43;20.57;;;4.70;99.90;;;;;;6154427;23;20414;-81
2021/01/10 08:13:29;;;;;;;40.10;22.80;;;4.80;99.90;;;;;;6153853;23;20734;-77
2021/01/10 08:16:07;;;;;;;41.90;21.80;;;4.90;99.90;;;;;;6154005;23;20937;-81
2021/01/10 08:18:37;;;;;;;40.27;20.73;;;4.80;99.90;;;;;;6155117;23;20431;-80
2021/01/10 08:21:14;;;;;;;36.40;20.37;;;4.90;99.90;;;;;;6153243;23;20413;-81
2021/01/10 08:23:46;;;;;;;33.70;19.57;;;5.00;99.90;;;;;;6154221;23;20465;-82
2021/01/10 08:26:14;;;;;;;38.00;20.87;;;5.00;99.90;;;;;;6154063;23;20482;-83
2021/01/10 08:28:49;;;;;;;39.80;21.07;;;5.00;99.90;;;;;;6154262;23;20455;-82
2021/01/10 08:31:26;;;;;;;33.43;20.40;;;4.90;99.90;;;;;;6153071;23;20407;-79
2021/01/10 08:33:58;;;;;;;42.27;20.70;;;4.80;99.90;;;;;;6177845;23;20438;-82
2021/01/10 08:36:25;;;;;;;38.37;21.90;;;5.10;99.90;;;;;;6155495;23;20929;-81
2021/01/10 08:38:57;;;;;;;44.67;20.43;;;5.00;99.90;;;;;;6156336;23;20505;-81
2021/01/10 08:41:31;;;;;;;31.47;17.90;;;5.00;99.90;;;;;;6159758;23;20506;-78
2021/01/10 08:44:00;;;;;;;35.50;21.40;;;5.10;99.90;;;;;;6164218;23;20518;-76
2021/01/10 08:46:29;;;;;;;40.03;20.90;;;5.00;99.90;;;;;;6162722;23;20430;-79
2021/01/10 08:48:56;;;;;;;41.77;22.83;;;5.20;99.90;;;;;;6164398;23;20466;-79
2021/01/10 08:51:34;;;;;;;38.40;20.97;;;5.20;99.90;;;;;;6161840;23;20494;-81
2021/01/10 08:54:08;;;;;;;37.93;20.20;;;5.00;99.90;;;;;;6158065;23;20445;-81
2021/01/10 08:56:35;;;;;;;42.77;22.17;;;5.10;99.90;;;;;;6158380;23;20465;-79
2021/01/10 08:59:01;;;;;;;34.87;20.20;;;5.10;99.90;;;;;;6187958;23;20442;-79
2021/01/10 09:01:28;;;;;;;41.80;21.10;;;5.00;99.90;;;;;;6167830;23;20407;-79
2021/01/10 09:04:02;;;;;;;40.60;20.33;;;4.80;99.90;;;;;;6168708;23;20439;-77
2021/01/10 09:06:34;;;;;;;34.83;20.40;;;4.80;99.90;;;;;;6168376;23;20502;-79
2021/01/10 09:09:06;;;;;;;44.47;21.00;;;5.20;99.90;;;;;;6175283;23;20468;-79
2021/01/10 09:11:36;;;;;;;47.87;21.23;;;5.20;99.90;;;;;;6160616;23;21492;-78
2021/01/10 09:14:06;;;;;;;35.60;19.40;;;5.30;99.90;;;;;;6173081;23;20432;-78
2021/01/10 09:16:36;;;;;;;40.93;21.67;;;5.20;99.90;;;;;;6146597;23;20387;-80
2021/01/10 09:19:04;;;;;;;40.43;21.80;;;5.40;99.90;;;;;;6147768;23;20431;-79
2021/01/10 09:21:31;;;;;;;41.80;21.70;;;5.40;99.90;;;;;;6147425;23;20412;-79
2021/01/10 09:23:59;;;;;;;39.27;20.67;;;5.50;99.90;;;;;;6140782;23;20444;-80
2021/01/10 09:26:33;;;;;;;48.60;21.87;;;5.50;99.90;;;;;;6136968;23;20416;-81
2021/01/10 09:29:02;;;;;;;37.03;21.87;;;5.50;99.90;;;;;;6131830;23;20415;-78
2021/01/10 09:31:43;;;;;;;34.70;20.73;;;5.40;99.90;;;;;;6129117;23;20407;-81
2021/01/10 09:34:10;;;;;;;39.20;20.53;;;5.40;99.90;;;;;;6131407;23;21501;-78
2021/01/10 09:36:37;;;;;;;38.80;21.80;;;5.30;99.90;;;;;;6130493;23;20396;-80
2021/01/10 09:39:05;;;;;;;49.43;22.07;;;5.30;99.90;;;;;;6129852;23;20507;-81
2021/01/10 09:41:32;;;;;;;39.97;19.77;;;5.30;99.90;;;;;;6135085;23;20414;-77
2021/01/10 09:43:58;;;;;;;40.57;22.90;;;5.20;99.90;;;;;;6143550;23;20418;-78
2021/01/10 09:46:38;;;;;;;40.53;21.40;;;5.00;99.90;;;;;;6135894;23;20416;-80
2021/01/10 09:49:08;;;;;;;42.90;21.70;;;5.10;99.90;;;;;;6131928;23;20423;-79
2021/01/10 09:51:42;;;;;;;30.37;19.23;;;5.00;99.90;;;;;;6133237;23;20451;-81
2021/01/10 09:54:13;;;;;;;43.90;20.67;;;5.20;99.90;;;;;;6132084;23;20491;-79
2021/01/10 09:56:39;;;;;;;36.57;20.27;;;5.20;99.90;;;;;;6132088;23;20408;-78
2021/01/10 09:59:32;;;;;;;39.40;19.43;;;5.10;99.90;;;;;;6132874;23;20440;-79
2021/01/10 10:02:11;;;;;;;49.00;22.00;;;5.20;99.90;;;;;;6138152;23;20411;-79
2021/01/10 10:04:37;;;;;;;44.63;21.67;;;5.40;99.90;;;;;;6138629;23;20423;-79
2021/01/10 10:07:04;;;;;;;46.03;21.83;;;5.40;99.90;;;;;;6139504;23;20416;-78
2021/01/10 10:09:51;;;;;;;38.93;21.77;;;5.40;99.90;;;;;;6143213;23;20511;-79
2021/01/10 10:12:22;;;;;;;53.93;25.57;;;5.30;99.90;;;;;;6142663;23;20415;-79
2021/01/10 10:14:53;;;;;;;40.63;22.90;;;5.20;99.90;;;;;;6134701;23;20432;-80
2021/01/10 10:17:21;;;;;;;43.77;25.03;;;5.30;99.90;;;;;;6133967;23;20635;-78
2021/01/10 10:19:48;;;;;;;40.47;21.83;;;5.30;99.90;;;;;;6134002;23;20443;-81
2021/01/10 10:22:22;;;;;;;48.47;23.17;;;5.10;99.90;;;;;;6132990;23;20392;-81
2021/01/10 10:24:48;;;;;;;41.93;21.60;;;5.20;99.90;;;;;;6133310;23;20943;-79
2021/01/10 10:27:15;;;;;;;38.50;20.30;;;5.60;99.90;;;;;;6131053;23;20412;-78
2021/01/10 10:29:41;;;;;;;40.57;22.70;;;5.60;99.90;;;;;;6132126;23;20420;-81
2021/01/10 10:32:08;;;;;;;39.47;21.93;;;5.50;99.90;;;;;;6130630;23;20451;-79
2021/01/10 10:34:35;;;;;;;44.83;24.33;;;5.60;99.90;;;;;;6128884;23;20524;-78
2021/01/10 10:37:03;;;;;;;44.37;23.60;;;5.50;99.90;;;;;;6131288;23;20422;-79
2021/01/10 10:39:30;;;;;;;48.60;24.27;;;5.40;99.90;;;;;;6135251;23;20527;-81
2021/01/10 10:41:56;;;;;;;44.17;22.43;;;5.40;99.90;;;;;;6131818;23;20407;-80
2021/01/10 10:44:23;;;;;;;36.23;22.10;;;5.30;99.90;;;;;;6133360;23;20435;-80
2021/01/10 10:46:49;;;;;;;42.90;24.13;;;5.40;99.90;;;;;;6134169;23;20419;-79
2021/01/10 10:49:15;;;;;;;39.90;22.90;;;5.40;99.90;;;;;;6132061;23;20396;-79
2021/01/10 10:51:41;;;;;;;44.87;22.80;;;5.40;99.90;;;;;;6129596;23;20443;-79
2021/01/10 10:54:09;;;;;;;40.67;22.67;;;5.50;99.90;;;;;;6125476;23;20487;-79
2021/01/10 10:56:39;;;;;;;37.90;20.93;;;5.70;99.90;;;;;;6125280;23;20755;-80
2021/01/10 10:59:06;;;;;;;38.53;23.30;;;5.80;99.90;;;;;;6124220;23;20511;-80
2021/01/10 11:01:45;;;;;;;38.30;21.20;;;5.60;99.90;;;;;;6127453;23;20490;-79
2021/01/10 11:04:12;;;;;;;41.10;23.40;;;5.60;99.90;;;;;;6125312;23;20435;-81
2021/01/10 11:06:38;;;;;;;44.47;22.90;;;5.70;99.90;;;;;;6124370;23;20475;-80
2021/01/10 11:09:09;;;;;;;39.10;21.90;;;5.80;99.90;;;;;;6125895;23;20942;-80
2021/01/10 11:11:40;;;;;;;46.77;24.33;;;5.70;99.90;;;;;;6124236;23;20408;-80
2021/01/10 11:14:07;;;;;;;43.27;22.33;;;5.80;99.90;;;;;;6125319;23;20953;-80
2021/01/10 11:16:35;;;;;;;42.07;22.67;;;5.80;99.90;;;;;;6124018;23;20416;-81
2021/01/10 11:19:04;;;;;;;43.20;23.57;;;5.90;99.90;;;;;;6123168;23;20511;-80
2021/01/10 11:21:38;;;;;;;36.07;21.33;;;6.00;99.90;;;;;;6124066;23;20418;-81
2021/01/10 11:24:06;;;;;;;43.63;22.43;;;5.70;99.90;;;;;;6131286;23;20435;-80
2021/01/10 11:26:33;;;;;;;34.90;21.03;;;5.80;99.90;;;;;;6132882;23;20446;-80
2021/01/10 11:28:59;;;;;;;41.30;23.53;;;5.90;99.90;;;;;;6132773;23;20408;-80
2021/01/10 11:31:26;;;;;;;40.57;23.37;;;5.90;99.90;;;;;;6132488;23;20412;-79
2021/01/10 11:33:53;;;;;;;43.17;23.17;;;5.90;99.90;;;;;;6133236;23;20503;-78
2021/01/10 11:36:20;;;;;;;34.40;21.47;;;5.90;99.90;;;;;;6130191;23;20429;-79
2021/01/10 11:38:53;;;;;;;37.30;22.90;;;5.90;99.90;;;;;;6130918;23;20471;-78
2021/01/10 11:41:21;;;;;;;40.37;23.33;;;5.90;99.90;;;;;;6127328;23;20468;-81
2021/01/10 11:43:48;;;;;;;40.73;24.47;;;5.80;99.90;;;;;;6126609;23;20436;-78
2021/01/10 11:46:15;;;;;;;38.63;22.50;;;5.90;99.90;;;;;;6128036;23;20420;-80
2021/01/10 11:48:42;;;;;;;37.90;22.10;;;5.90;99.90;;;;;;6127174;23;20936;-80
2021/01/10 11:51:10;;;;;;;38.10;22.33;;;5.70;99.90;;;;;;6126204;23;20423;-82
2021/01/10 11:53:37;;;;;;;38.87;21.40;;;6.00;99.90;;;;;;6126458;23;20515;-80
2021/01/10 11:56:03;;;;;;;33.93;20.00;;;6.00;99.90;;;;;;6128562;23;20396;-80
2021/01/10 11:58:30;;;;;;;34.80;20.97;;;6.00;99.90;;;;;;6123797;23;20458;-80
2021/01/10 12:00:56;;;;;;;33.83;21.70;;;6.20;99.90;;;;;;6128926;23;20451;-80
2021/01/10 12:03:24;;;;;;;36.30;21.00;;;6.20;99.90;;;;;;6128062;23;20438;-81
2021/01/10 12:05:51;;;;;;;36.20;19.70;;;6.20;99.90;;;;;;6128114;23;20863;-79
2021/01/10 12:08:18;;;;;;;30.83;19.73;;;6.00;99.90;;;;;;6129505;23;20446;-80
2021/01/10 12:10:45;;;;;;;31.20;20.77;;;6.00;99.90;;;;;;6128104;23;20426;-82
2021/01/10 12:13:14;;;;;;;29.37;20.00;;;5.80;99.90;;;;;;6126739;23;21229;-80
2021/01/10 12:15:41;;;;;;;28.73;17.83;;;5.60;99.90;;;;;;6122731;23;20927;-79
2021/01/10 12:18:08;;;;;;;29.13;18.90;;;5.50;99.90;;;;;;6122366;23;20463;-80
2021/01/10 12:20:35;;;;;;;31.40;19.83;;;5.70;99.90;;;;;;6135448;23;20412;-80
2021/01/10 12:23:01;;;;;;;30.80;19.60;;;6.10;99.90;;;;;;6138952;23;20457;-80
2021/01/10 12:25:28;;;;;;;32.40;17.20;;;6.20;99.90;;;;;;6130204;23;20400;-81
2021/01/10 12:27:55;;;;;;;33.70;20.20;;;6.10;99.90;;;;;;6128495;23;20415;-79
2021/01/10 12:30:22;;;;;;;32.93;18.37;;;5.90;99.90;;;;;;6125863;23;20408;-81
2021/01/10 12:32:50;;;;;;;32.37;19.00;;;6.00;99.90;;;;;;6129322;23;20408;-82
2021/01/10 12:35:18;;;;;;;30.20;18.77;;;6.00;99.90;;;;;;6133329;23;20435;-81
2021/01/10 12:37:47;;;;;;;28.60;19.77;;;6.20;99.90;;;;;;6128523;23;20905;-82
2021/01/10 12:40:14;;;;;;;27.73;17.10;;;6.20;99.90;;;;;;6127232;23;20414;-82
2021/01/10 12:42:41;;;;;;;30.07;17.53;;;6.20;99.90;;;;;;6125460;23;20415;-82
2021/01/10 12:45:12;;;;;;;34.53;19.47;;;6.00;99.90;;;;;;6127305;23;20408;-80
2021/01/10 12:47:44;;;;;;;25.37;17.30;;;5.90;99.90;;;;;;6126240;23;20479;-80